Scandia, Minnesota
Current Conditions -  °F | °C
As of 4:55 AM on Friday 19 Dec 2014 (Local Time) from KOEO Reporting Station
Overcast Overcast  
Wind Chill: 23°   Ceiling: 7000
Heat Index: 23°   Visibility: 10mi
Dew Point: 19°   Wind: 3mph
Humidity: 85%   Direction: 170°S
Pressure: 30.28"   Gusts: NA
Location:  45.25°N, 92.81°W
Report Text: KOEO 191055Z AUTO 17003KT 10SM SCT014 BKN070 OVC095 M05/M07 A3028 RMK AO2 T10521074
Loading
Personal Weather Stations






























Interactive Weather Map New forecast layout! Learn more

10-Day Weather Forecast

Advertisements
Track Severe Weather on mobile